Time;durP1;ratioP1;P1;durP2;ratioP2;P2;SDS_P1;SDS_P2;PMS_P1;PMS_P2;Temp;Humidity;BMP_temperature;BMP_pressure;BME280_temperature;BME280_humidity;BME280_pressure;Samples;Min_cycle;Max_cycle;Signal;HPM_P1;HPM_P2
2023/03/04 00:00:02;;;;;;;10.48;2.35;;;;;;;5.08;100.00;102549.75;5093505;28;20048;-80
2023/03/04 00:02:36;;;;;;;10.02;1.95;;;;;;;5.08;100.00;102547.13;5078772;28;20059;-80
2023/03/04 00:05:04;;;;;;;13.05;2.35;;;;;;;5.08;100.00;102547.13;5079397;28;20050;-79
2023/03/04 00:07:31;;;;;;;10.60;2.10;;;;;;;5.08;100.00;102544.50;5059463;28;20036;-81
2023/03/04 00:09:59;;;;;;;11.07;2.20;;;;;;;5.09;100.00;102545.41;5088232;28;20039;-81
2023/03/04 00:12:26;;;;;;;14.90;2.30;;;;;;;5.10;100.00;102546.28;5022911;28;20051;-77
2023/03/04 00:14:53;;;;;;;12.88;2.95;;;;;;;5.10;100.00;102543.69;5049461;28;20093;-80
2023/03/04 00:17:22;;;;;;;7.93;1.50;;;;;;;5.10;100.00;102533.22;5070860;28;20047;-81
2023/03/04 00:19:50;;;;;;;12.70;2.15;;;;;;;5.11;100.00;102537.66;5014907;28;22580;-81
2023/03/04 00:22:17;;;;;;;7.28;2.13;;;;;;;5.11;100.00;102532.41;5075608;28;20691;-80
2023/03/04 00:24:44;;;;;;;12.25;2.63;;;;;;;5.12;100.00;102531.59;5091124;28;20059;-80
2023/03/04 00:27:13;;;;;;;7.22;2.08;;;;;;;5.10;100.00;102520.16;5067013;28;20051;-80
2023/03/04 00:29:40;;;;;;;18.15;2.80;;;;;;;5.12;100.00;102521.13;5019343;28;20051;-80
2023/03/04 00:32:07;;;;;;;10.63;2.17;;;;;;;5.11;100.00;102525.47;5046469;28;20416;-80
2023/03/04 00:34:36;;;;;;;13.52;2.80;;;;;;;5.10;100.00;102512.31;5101840;28;20039;-79
2023/03/04 00:37:03;;;;;;;15.80;2.55;;;;;;;5.10;100.00;102515.81;5093832;28;20074;-80
2023/03/04 00:39:30;;;;;;;20.95;4.22;;;;;;;5.11;100.00;102520.25;5075776;28;20059;-80
2023/03/04 00:41:58;;;;;;;10.05;2.30;;;;;;;5.11;100.00;102524.59;5084693;28;20527;-79
2023/03/04 00:44:25;;;;;;;13.45;2.33;;;;;;;5.09;100.00;102516.66;5035742;28;20048;-79
2023/03/04 00:46:52;;;;;;;14.30;2.88;;;;;;;5.08;100.00;102510.53;5059673;28;20486;-80
2023/03/04 00:49:20;;;;;;;11.63;2.78;;;;;;;5.07;100.00;102516.56;5068069;28;20048;-80
2023/03/04 00:51:48;;;;;;;15.77;3.42;;;;;;;5.05;100.00;102515.59;5083663;28;20674;-80
2023/03/04 00:54:15;;;;;;;16.73;2.85;;;;;;;5.05;100.00;102514.72;5096125;28;20048;-80
2023/03/04 00:56:43;;;;;;;19.05;3.47;;;;;;;5.03;100.00;102516.34;5056652;28;20039;-79
2023/03/04 00:59:10;;;;;;;15.68;3.22;;;;;;;5.00;100.00;102511.84;5041626;28;20051;-80
2023/03/04 01:01:38;;;;;;;14.57;2.65;;;;;;;4.98;100.00;102509.97;5051480;28;20048;-78
2023/03/04 01:04:05;;;;;;;11.63;2.60;;;;;;;4.96;100.00;102506.38;5093383;28;20047;-81
2023/03/04 01:06:33;;;;;;;14.60;3.10;;;;;;;4.93;100.00;102509.72;5042282;28;20063;-81
2023/03/04 01:09:00;;;;;;;7.90;2.15;;;;;;;4.90;100.00;102504.34;5093664;28;20051;-78
2023/03/04 01:11:29;;;;;;;12.55;2.53;;;;;;;4.87;100.00;102515.50;5077454;28;20040;-78
2023/03/04 01:13:58;;;;;;;14.85;3.13;;;;;;;4.88;100.00;102505.97;5063418;28;20044;-79
2023/03/04 01:16:26;;;;;;;10.13;2.28;;;;;;;4.88;100.00;102508.59;5035691;28;20054;-79
2023/03/04 01:18:53;;;;;;;10.75;2.25;;;;;;;4.89;100.00;102494.69;5059712;28;20070;-79
2023/03/04 01:21:21;;;;;;;10.18;2.47;;;;;;;4.88;100.00;102504.25;5061203;28;20044;-80
2023/03/04 01:23:48;;;;;;;11.52;2.53;;;;;;;4.88;100.00;102496.41;5054087;28;20056;-81
2023/03/04 01:26:16;;;;;;;10.32;2.83;;;;;;;4.89;100.00;102495.59;5099683;28;20058;-81
2023/03/04 01:28:43;;;;;;;15.57;3.67;;;;;;;4.89;100.00;102497.31;5078429;28;20134;-78
2023/03/04 01:31:11;;;;;;;14.18;2.35;;;;;;;4.90;100.00;102483.44;5021591;28;20048;-81
2023/03/04 01:33:38;;;;;;;15.40;2.65;;;;;;;4.92;100.00;102487.03;5065312;28;20043;-80
2023/03/04 01:36:06;;;;;;;13.23;2.65;;;;;;;4.93;100.00;102474.84;5068121;28;20043;-80
2023/03/04 01:38:33;;;;;;;10.55;2.28;;;;;;;4.93;100.00;102485.31;5050135;28;20048;-80
2023/03/04 01:41:01;;;;;;;13.05;2.25;;;;;;;4.94;100.00;102479.28;5095154;28;20043;-80
2023/03/04 01:43:30;;;;;;;9.50;1.85;;;;;;;4.92;100.00;102473.97;5095638;28;20054;-80
2023/03/04 01:45:58;;;;;;;8.55;2.22;;;;;;;4.93;100.00;102462.69;5051779;28;20046;-80
2023/03/04 01:48:30;;;;;;;9.63;2.42;;;;;;;4.95;100.00;102465.38;5073030;28;20051;-80
2023/03/04 01:51:01;;;;;;;8.48;2.22;;;;;;;4.95;100.00;102463.66;5098081;28;20048;-80
2023/03/04 01:53:31;;;;;;;12.70;2.85;;;;;;;4.96;100.00;102460.25;5073657;28;20420;-80
2023/03/04 01:56:27;;;;;;;12.63;2.13;;;;;;;4.95;100.00;102449.72;5111160;28;20039;-80
2023/03/04 01:59:14;;;;;;;14.65;3.53;;;;;;;4.93;100.00;102452.22;5087751;28;20391;-80
2023/03/04 02:01:49;;;;;;;14.32;2.83;;;;;;;4.93;100.00;102449.63;5074784;28;20051;-80
2023/03/04 02:04:19;;;;;;;7.85;2.13;;;;;;;4.92;100.00;102450.47;5045600;28;20488;-79
2023/03/04 02:06:50;;;;;;;14.10;2.40;;;;;;;4.93;100.00;102435.66;5061007;28;20152;-80
2023/03/04 02:09:19;;;;;;;19.73;2.80;;;;;;;4.92;100.00;102445.22;5093317;28;20067;-80
2023/03/04 02:11:49;;;;;;;13.68;2.83;;;;;;;4.93;100.00;102436.56;5066418;28;20044;-80
2023/03/04 02:14:19;;;;;;;9.13;2.10;;;;;;;4.92;100.00;102434.78;5115571;28;20405;-80
2023/03/04 02:16:48;;;;;;;10.10;2.13;;;;;;;4.92;100.00;102437.41;5078529;28;20551;-80
2023/03/04 02:19:31;;;;;;;12.95;2.50;;;;;;;4.92;100.00;102429.56;5053491;28;20063;-79
2023/03/04 02:21:58;;;;;;;6.40;2.38;;;;;;;4.93;100.00;102435.66;5077434;28;20044;-79
2023/03/04 02:24:33;;;;;;;13.52;2.72;;;;;;;4.92;100.00;102429.56;5059824;28;20047;-79
2023/03/04 02:27:02;;;;;;;13.07;2.53;;;;;;;4.91;100.00;102429.47;5109849;28;20047;-79
2023/03/04 02:29:30;;;;;;;10.18;2.53;;;;;;;4.91;100.00;102424.25;5082988;28;20051;-79
2023/03/04 02:31:57;;;;;;;16.10;2.42;;;;;;;4.89;100.00;102421.56;5065226;28;20062;-79
2023/03/04 02:34:31;;;;;;;7.95;2.33;;;;;;;4.89;100.00;102421.56;5058924;28;20066;-80
2023/03/04 02:37:00;;;;;;;10.45;1.90;;;;;;;4.89;100.00;102425.06;5066354;28;20059;-79
2023/03/04 02:39:33;;;;;;;7.07;1.90;;;;;;;4.89;100.00;102418.94;5074293;28;20368;-80
2023/03/04 02:42:02;;;;;;;10.88;3.08;;;;;;;4.91;100.00;102424.25;5056518;28;20048;-80
2023/03/04 02:44:36;;;;;;;12.63;2.30;;;;;;;4.91;100.00;102413.81;5082585;28;20420;-80
2023/03/04 02:47:06;;;;;;;10.02;1.70;;;;;;;4.91;100.00;102409.47;5082656;28;20052;-80
2023/03/04 02:49:35;;;;;;;12.15;1.88;;;;;;;4.90;100.00;102405.06;5059165;28;20396;-79
2023/03/04 02:52:19;;;;;;;11.82;1.70;;;;;;;4.91;100.00;102405.97;5091834;28;20268;-80
2023/03/04 02:54:47;;;;;;;6.55;1.92;;;;;;;4.90;100.00;102405.06;5065776;28;20043;-80
2023/03/04 02:57:15;;;;;;;13.27;2.08;;;;;;;4.90;100.00;102402.47;5050414;28;20054;-80
2023/03/04 02:59:47;;;;;;;7.90;1.80;;;;;;;4.89;100.00;102396.31;5075286;28;20046;-80
2023/03/04 03:02:19;;;;;;;8.60;1.90;;;;;;;4.89;100.00;102395.44;5068298;28;20055;-79
2023/03/04 03:04:46;;;;;;;13.73;2.83;;;;;;;4.89;100.00;102403.25;5021159;28;22180;-80
2023/03/04 03:07:17;;;;;;;10.23;1.77;;;;;;;4.89;100.00;102392.81;5087759;28;20044;-79
2023/03/04 03:09:45;;;;;;;5.93;1.98;;;;;;;4.89;100.00;102385.88;5070444;28;20044;-79
2023/03/04 03:12:12;;;;;;;7.63;1.92;;;;;;;4.90;100.00;102389.41;5051859;28;20047;-79
2023/03/04 03:14:40;;;;;;;10.30;2.72;;;;;;;4.91;100.00;102379.84;5099044;28;20062;-79
2023/03/04 03:17:10;;;;;;;10.98;2.33;;;;;;;4.90;100.00;102389.41;5079090;28;20052;-79
2023/03/04 03:19:37;;;;;;;16.20;2.60;;;;;;;4.92;100.00;102390.38;5046814;28;20070;-79
2023/03/04 03:22:07;;;;;;;12.05;3.08;;;;;;;4.92;100.00;102373.81;5076920;28;20054;-80
2023/03/04 03:24:34;;;;;;;11.45;2.70;;;;;;;4.90;100.00;102378.94;5060212;28;20535;-79
2023/03/04 03:27:02;;;;;;;12.35;3.42;;;;;;;4.89;100.00;102372.81;5078871;28;20051;-79
2023/03/04 03:29:31;;;;;;;7.35;1.98;;;;;;;4.89;100.00;102366.69;5050821;28;20048;-79
2023/03/04 03:31:58;;;;;;;14.65;2.17;;;;;;;4.90;100.00;102363.28;5061353;28;20079;-79
2023/03/04 03:34:27;;;;;;;9.65;1.83;;;;;;;4.91;100.00;102367.66;5053489;28;20040;-79
2023/03/04 03:36:54;;;;;;;9.90;2.03;;;;;;;4.90;100.00;102363.28;5039580;28;20570;-79
2023/03/04 03:39:21;;;;;;;15.50;2.30;;;;;;;4.91;100.00;102374.63;5071344;28;20519;-79
2023/03/04 03:41:50;;;;;;;11.43;2.78;;;;;;;4.92;100.00;102369.47;5090888;28;20044;-80
2023/03/04 03:44:17;;;;;;;9.82;2.25;;;;;;;4.91;100.00;102366.78;5031619;28;20052;-80
2023/03/04 03:46:46;;;;;;;7.95;1.95;;;;;;;4.92;100.00;102372.09;5086796;28;20054;-80
2023/03/04 03:49:13;;;;;;;14.52;1.90;;;;;;;4.92;100.00;102361.63;5050355;28;20052;-80
2023/03/04 03:51:41;;;;;;;11.55;2.20;;;;;;;4.92;100.00;102366.88;5051399;28;20040;-80
2023/03/04 03:54:09;;;;;;;4.20;1.65;;;;;;;4.92;100.00;102351.19;5095842;28;20058;-80
2023/03/04 03:56:36;;;;;;;6.70;1.77;;;;;;;4.91;100.00;102365.06;5081458;28;20056;-79
2023/03/04 03:59:04;;;;;;;7.50;2.42;;;;;;;4.92;100.00;102359.03;5085173;28;20066;-79
2023/03/04 04:01:32;;;;;;;6.55;1.85;;;;;;;4.92;100.00;102359.03;5073598;28;20044;-79
2023/03/04 04:04:00;;;;;;;8.20;1.40;;;;;;;4.93;100.00;102355.56;5064872;28;20062;-79
2023/03/04 04:06:27;;;;;;;6.35;1.73;;;;;;;4.92;100.00;102356.41;5049466;28;20048;-79
2023/03/04 04:08:54;;;;;;;10.20;2.17;;;;;;;4.92;100.00;102356.41;5058409;28;20048;-80
2023/03/04 04:11:22;;;;;;;13.18;2.00;;;;;;;4.93;100.00;102352.97;5055223;28;20052;-79
2023/03/04 04:13:49;;;;;;;5.65;1.60;;;;;;;4.94;100.00;102359.09;5057762;28;20036;-79
2023/03/04 04:16:16;;;;;;;4.25;1.48;;;;;;;4.95;100.00;102356.53;5082803;28;20381;-78
2023/03/04 04:18:44;;;;;;;5.70;1.65;;;;;;;4.95;100.00;102355.66;5066870;28;20051;-80
2023/03/04 04:21:11;;;;;;;8.07;1.65;;;;;;;4.96;100.00;102355.75;5065809;28;20048;-79
2023/03/04 04:23:38;;;;;;;6.05;1.40;;;;;;;4.97;100.00;102354.00;5029665;28;20056;-80
2023/03/04 04:26:06;;;;;;;12.85;2.80;;;;;;;4.98;100.00;102354.09;5075077;28;20044;-80
2023/03/04 04:28:33;;;;;;;8.32;1.95;;;;;;;4.99;100.00;102363.75;5075144;28;20397;-79
2023/03/04 04:31:00;;;;;;;8.00;1.85;;;;;;;5.00;100.00;102356.78;5101947;28;20044;-80
2023/03/04 04:33:28;;;;;;;8.30;1.75;;;;;;;5.00;100.00;102359.41;5071845;28;20412;-80
2023/03/04 04:35:55;;;;;;;9.27;1.67;;;;;;;4.99;100.00;102366.34;5044740;28;20063;-80
2023/03/04 04:38:24;;;;;;;6.15;1.52;;;;;;;4.98;100.00;102361.94;5036994;28;20051;-80
2023/03/04 04:40:52;;;;;;;9.00;2.20;;;;;;;4.95;100.00;102351.31;5092074;28;20039;-79
2023/03/04 04:43:19;;;;;;;7.28;1.95;;;;;;;4.93;100.00;102352.97;5111564;28;20051;-80
2023/03/04 04:45:46;;;;;;;14.65;1.70;;;;;;;4.89;100.00;102356.25;5075551;28;20051;-80
2023/03/04 04:48:15;;;;;;;12.23;2.15;;;;;;;4.86;100.00;102349.16;5054027;28;20059;-80
2023/03/04 04:50:43;;;;;;;13.73;2.78;;;;;;;4.84;100.00;102349.91;5050610;28;20063;-80
2023/03/04 04:53:13;;;;;;;14.02;2.63;;;;;;;4.83;100.00;102353.34;5076620;28;20051;-79
2023/03/04 04:55:40;;;;;;;16.23;2.47;;;;;;;4.82;100.00;102346.31;5035139;28;20055;-79
2023/03/04 04:58:07;;;;;;;14.23;2.40;;;;;;;4.80;100.00;102351.47;5077155;28;20051;-79
2023/03/04 05:00:35;;;;;;;10.32;3.13;;;;;;;4.81;100.00;102357.59;5062378;28;20071;-79
2023/03/04 05:03:02;;;;;;;20.38;3.03;;;;;;;4.80;100.00;102353.16;5028312;28;20067;-79
2023/03/04 05:05:30;;;;;;;11.18;2.33;;;;;;;4.80;100.00;102354.09;5073970;28;20040;-79
2023/03/04 05:07:57;;;;;;;11.30;2.05;;;;;;;4.79;100.00;102348.78;5033276;28;20047;-78
2023/03/04 05:10:25;;;;;;;11.98;2.50;;;;;;;4.79;100.00;102347.06;4991712;28;20047;-78
2023/03/04 05:12:52;;;;;;;5.63;2.17;;;;;;;4.77;100.00;102345.19;5051007;28;20060;-78
2023/03/04 05:15:22;;;;;;;19.52;2.03;;;;;;;4.75;100.00;102341.63;5059290;28;20082;-78
2023/03/04 05:17:49;;;;;;;6.13;1.70;;;;;;;4.72;100.00;102342.34;5040667;28;20044;-79
2023/03/04 05:20:17;;;;;;;8.57;1.55;;;;;;;4.72;100.00;102342.34;5107341;28;20517;-79
2023/03/04 05:22:44;;;;;;;15.15;2.53;;;;;;;4.71;100.00;102340.56;5064101;28;20050;-79
2023/03/04 05:25:12;;;;;;;9.30;1.90;;;;;;;4.72;100.00;102341.44;5034047;28;20055;-78
2023/03/04 05:27:39;;;;;;;7.38;1.83;;;;;;;4.72;100.00;102342.34;5092629;28;20058;-79
2023/03/04 05:30:07;;;;;;;16.35;3.13;;;;;;;4.73;100.00;102338.91;5078664;28;20039;-78
2023/03/04 05:32:35;;;;;;;17.73;2.65;;;;;;;4.74;100.00;102334.56;5075021;28;20063;-79
2023/03/04 05:35:02;;;;;;;22.13;3.72;;;;;;;4.74;100.00;102338.06;5080790;28;20048;-78
2023/03/04 05:37:32;;;;;;;11.57;2.27;;;;;;;4.76;100.00;102331.22;5052724;28;20260;-78
2023/03/04 05:40:01;;;;;;;14.05;2.28;;;;;;;4.76;100.00;102328.59;5077056;28;20052;-79
2023/03/04 05:42:28;;;;;;;19.58;3.08;;;;;;;4.78;100.00;102331.31;5050518;28;20393;-79
2023/03/04 05:44:56;;;;;;;11.60;2.45;;;;;;;4.77;100.00;102329.53;5077445;28;20488;-80
2023/03/04 05:47:24;;;;;;;13.88;2.55;;;;;;;4.78;100.00;102331.31;5074137;28;20055;-80
2023/03/04 05:49:51;;;;;;;10.98;2.35;;;;;;;4.77;100.00;102324.31;5054626;28;20047;-80
2023/03/04 05:52:19;;;;;;;15.18;2.20;;;;;;;4.79;100.00;102340.94;5064065;28;20052;-79
2023/03/04 05:54:46;;;;;;;11.45;2.25;;;;;;;4.78;100.00;102341.75;5062540;28;20044;-80
2023/03/04 05:57:14;;;;;;;10.15;2.40;;;;;;;4.78;100.00;102334.84;5034384;28;20063;-79
2023/03/04 05:59:41;;;;;;;15.23;2.25;;;;;;;4.77;100.00;102333.03;5058414;28;20474;-79
2023/03/04 06:02:09;;;;;;;12.65;2.42;;;;;;;4.77;100.00;102329.53;5066964;28;20063;-79
2023/03/04 06:04:36;;;;;;;12.55;2.80;;;;;;;4.76;100.00;102332.94;5041454;28;20538;-79
2023/03/04 06:07:03;;;;;;;7.80;2.10;;;;;;;4.75;100.00;102334.66;5072646;28;20067;-78
2023/03/04 06:09:32;;;;;;;10.95;2.15;;;;;;;4.76;100.00;102332.94;5089818;28;20044;-78
2023/03/04 06:11:59;;;;;;;6.15;2.70;;;;;;;4.75;100.00;102339.88;5011003;28;20598;-79
2023/03/04 06:14:26;;;;;;;12.10;1.98;;;;;;;4.75;100.00;102346.84;5054342;28;20056;-79
2023/03/04 06:16:54;;;;;;;5.93;1.70;;;;;;;4.75;100.00;102347.72;5073738;28;20058;-78
2023/03/04 06:19:21;;;;;;;8.20;1.70;;;;;;;4.74;100.00;102334.56;5071997;28;20040;-78
2023/03/04 06:21:49;;;;;;;6.05;1.80;;;;;;;4.72;100.00;102338.84;5096532;28;20044;-78
2023/03/04 06:24:16;;;;;;;13.02;2.05;;;;;;;4.71;100.00;102343.16;5054418;28;20055;-78
2023/03/04 06:26:44;;;;;;;7.43;2.00;;;;;;;4.69;100.00;102332.63;5061960;28;20047;-79
2023/03/04 06:29:12;;;;;;;11.23;2.15;;;;;;;4.72;100.00;102344.94;5030488;28;20051;-78
2023/03/04 06:31:42;;;;;;;18.42;3.97;;;;;;;4.72;100.00;102349.28;5070743;28;20063;-78
2023/03/04 06:34:10;;;;;;;9.43;1.83;;;;;;;4.73;100.00;102345.88;5078892;28;20045;-80
2023/03/04 06:36:37;;;;;;;10.48;2.72;;;;;;;4.73;100.00;102341.53;5060295;28;20051;-79
2023/03/04 06:39:06;;;;;;;11.10;2.35;;;;;;;4.73;100.00;102349.34;5073106;28;20039;-80
2023/03/04 06:41:37;;;;;;;12.07;2.63;;;;;;;4.73;100.00;102351.09;5025833;28;20048;-79
2023/03/04 06:44:04;;;;;;;15.10;2.58;;;;;;;4.71;100.00;102350.06;5030690;28;20045;-79
2023/03/04 06:46:33;;;;;;;9.85;2.85;;;;;;;4.69;100.00;102348.31;5054373;28;20052;-79
2023/03/04 06:49:01;;;;;;;17.95;2.33;;;;;;;4.68;100.00;102346.50;5072673;28;20048;-79
2023/03/04 06:51:29;;;;;;;11.32;2.55;;;;;;;4.68;100.00;102351.72;5056668;28;20045;-78
2023/03/04 06:53:57;;;;;;;17.10;2.47;;;;;;;4.68;100.00;102356.94;5070365;28;20103;-80
2023/03/04 06:56:24;;;;;;;13.30;3.38;;;;;;;4.72;100.00;102351.88;5062646;28;20424;-79
2023/03/04 06:58:54;;;;;;;15.32;2.72;;;;;;;4.74;100.00;102355.47;5070529;28;20530;-79
2023/03/04 07:01:24;;;;;;;16.75;3.20;;;;;;;4.78;100.00;102367.88;5045158;28;20052;-79
2023/03/04 07:03:54;;;;;;;11.75;2.50;;;;;;;4.80;100.00;102359.31;5070254;28;20048;-78
2023/03/04 07:06:24;;;;;;;21.30;3.13;;;;;;;4.82;100.00;102354.13;5062503;28;20052;-79
2023/03/04 07:08:52;;;;;;;12.00;3.25;;;;;;;4.84;100.00;102368.19;5070164;28;20044;-80
2023/03/04 07:11:22;;;;;;;14.75;2.85;;;;;;;4.85;100.00;102367.38;5038010;28;20040;-81
2023/03/04 07:13:50;;;;;;;16.40;3.63;;;;;;;4.85;100.00;102372.59;5035030;28;20055;-79
2023/03/04 07:16:21;;;;;;;19.58;3.30;;;;;;;4.87;100.00;102381.41;5012318;28;20056;-79
2023/03/04 07:18:49;;;;;;;17.20;3.00;;;;;;;4.86;100.00;102366.56;5055254;28;20040;-79
2023/03/04 07:21:17;;;;;;;12.63;3.08;;;;;;;4.88;100.00;102372.75;5065382;28;20055;-78
2023/03/04 07:23:45;;;;;;;17.48;2.72;;;;;;;4.90;100.00;102368.50;5072275;28;20041;-79
2023/03/04 07:26:12;;;;;;;14.82;2.90;;;;;;;4.92;100.00;102364.25;5042741;28;20055;-79
2023/03/04 07:28:41;;;;;;;19.30;3.85;;;;;;;4.94;100.00;102364.34;5047451;28;20052;-79
2023/03/04 07:31:12;;;;;;;20.83;4.05;;;;;;;4.96;100.00;102373.16;5033880;28;20060;-78
2023/03/04 07:33:40;;;;;;;17.90;4.00;;;;;;;4.98;100.00;102372.38;5070628;28;20488;-79
2023/03/04 07:36:08;;;;;;;22.58;3.83;;;;;;;5.00;100.00;102380.31;5067600;28;20072;-80
2023/03/04 07:38:36;;;;;;;24.38;4.97;;;;;;;5.02;100.00;102379.56;5062957;28;20052;-80
2023/03/04 07:41:07;;;;;;;18.02;3.83;;;;;;;5.04;100.00;102377.03;5057748;28;20817;-80
2023/03/04 07:43:34;;;;;;;20.58;3.00;;;;;;;5.05;100.00;102387.56;5040530;28;20043;-77
2023/03/04 07:46:01;;;;;;;20.02;3.38;;;;;;;5.07;100.00;102379.81;5027308;28;20053;-79
2023/03/04 07:48:30;;;;;;;15.23;3.28;;;;;;;5.10;100.00;102394.72;5063371;28;20052;-79
2023/03/04 07:51:04;;;;;;;18.33;2.97;;;;;;;5.14;100.00;102386.22;5073968;28;20122;-79
2023/03/04 07:53:33;;;;;;;13.20;3.05;;;;;;;5.17;100.00;102389.88;5061428;28;20041;-79
2023/03/04 07:56:01;;;;;;;16.52;2.85;;;;;;;5.18;100.00;102382.94;5105572;28;20048;-79
2023/03/04 07:58:29;;;;;;;15.65;2.55;;;;;;;5.19;100.00;102377.78;5058812;28;20063;-79
2023/03/04 08:00:57;;;;;;;15.10;2.72;;;;;;;5.20;100.00;102394.38;5055506;28;20048;-78
2023/03/04 08:03:25;;;;;;;14.00;2.72;;;;;;;5.21;100.00;102396.16;5024174;28;20048;-78
2023/03/04 08:05:52;;;;;;;10.48;2.28;;;;;;;5.24;100.00;102392.00;5057372;28;20048;-79
2023/03/04 08:08:19;;;;;;;15.65;2.60;;;;;;;5.26;100.00;102392.97;5067054;28;20051;-79
2023/03/04 08:10:47;;;;;;;18.45;3.28;;;;;;;5.27;100.00;102391.22;5058289;28;20048;-79
2023/03/04 08:13:15;;;;;;;16.23;2.90;;;;;;;5.30;100.00;102391.41;5056331;28;20075;-79
2023/03/04 08:15:42;;;;;;;14.25;2.88;;;;;;;5.31;100.00;102414.09;5042502;28;20048;-79
2023/03/04 08:18:09;;;;;;;17.65;3.22;;;;;;;5.33;100.00;102398.47;5034080;28;20051;-78
2023/03/04 08:20:40;;;;;;;21.17;3.67;;;;;;;5.32;100.00;102409.78;5066828;28;20760;-78
2023/03/04 08:23:09;;;;;;;;;;;;;;;5.32;100.00;102405.44;5071013;28;20056;-79
2023/03/04 08:25:41;;;;;;;16.40;3.15;;;;;;;5.31;100.00;102401.00;5057454;28;20441;-79
2023/03/04 08:28:08;;;;;;;26.80;4.00;;;;;;;5.32;100.00;102409.78;5057310;28;20063;-81
2023/03/04 08:30:36;;;;;;;14.45;3.38;;;;;;;5.30;100.00;102409.69;5054100;28;20055;-79
2023/03/04 08:33:03;;;;;;;27.33;3.92;;;;;;;5.31;100.00;102406.25;5015002;28;20052;-80
2023/03/04 08:35:32;;;;;;;23.30;4.95;;;;;;;5.31;100.00;102406.25;5070812;28;20055;-80
2023/03/04 08:37:59;;;;;;;22.83;3.17;;;;;;;5.33;100.00;102409.84;5074670;28;20039;-81
2023/03/04 08:40:29;;;;;;;20.00;3.92;;;;;;;5.34;100.00;102403.78;5029526;28;20049;-81
2023/03/04 08:42:59;;;;;;;19.10;3.72;;;;;;;5.36;100.00;102409.09;5032359;28;20032;-79
2023/03/04 08:45:27;;;;;;;16.10;4.00;;;;;;;5.37;100.00;102417.03;5044114;28;20097;-78
2023/03/04 08:47:55;;;;;;;24.35;4.38;;;;;;;5.37;100.00;102409.19;5017337;28;20048;-78
2023/03/04 08:50:22;;;;;;;20.58;4.45;;;;;;;5.39;100.00;102407.53;5085176;28;20062;-78
2023/03/04 08:52:50;;;;;;;14.25;3.60;;;;;;;5.42;100.00;102405.06;5035624;28;20056;-79
2023/03/04 08:55:19;;;;;;;24.50;4.28;;;;;;;5.46;100.00;102412.25;5060585;28;20071;-79
2023/03/04 08:57:47;;;;;;;18.35;3.65;;;;;;;5.52;100.00;102405.50;5072179;28;20044;-80
2023/03/04 09:00:15;;;;;;;21.60;3.40;;;;;;;5.56;100.00;102412.72;5067652;28;20052;-80
2023/03/04 09:02:43;;;;;;;19.63;3.78;;;;;;;5.60;100.00;102409.41;5053247;28;20384;-78
2023/03/04 09:05:11;;;;;;;19.08;3.58;;;;;;;5.64;100.00;102414.84;5023523;28;20071;-81
2023/03/04 09:07:39;;;;;;;12.77;4.03;;;;;;;5.64;100.00;102420.09;5060686;28;20051;-78
2023/03/04 09:10:08;;;;;;;8.05;2.35;;;;;;;5.62;100.00;102424.34;5047373;28;20056;-81
2023/03/04 09:12:35;;;;;;;12.20;2.85;;;;;;;5.61;100.00;102427.81;5073110;28;20052;-81
2023/03/04 09:15:04;;;;;;;10.75;1.58;;;;;;;5.63;100.00;102434.00;5037841;28;20064;-81
2023/03/04 09:17:39;;;;;;;8.38;1.63;;;;;;;5.61;100.00;102435.66;5054979;28;20044;-81
2023/03/04 09:20:09;;;;;;;9.98;1.42;;;;;;;5.57;100.00;102427.56;5017968;28;20044;-80
2023/03/04 09:22:37;;;;;;;5.55;1.95;;;;;;;5.55;100.00;102426.59;5050678;28;20052;-80
2023/03/04 09:25:06;;;;;;;4.28;1.30;;;;;;;5.54;100.00;102420.47;5049696;28;20051;-80
2023/03/04 09:27:39;;;;;;;9.00;1.50;;;;;;;5.58;100.00;102425.03;5072991;28;20052;-80
2023/03/04 09:30:07;;;;;;;12.77;2.08;;;;;;;5.68;100.00;102431.59;5072237;28;20056;-80
2023/03/04 09:32:35;;;;;;;7.82;1.30;;;;;;;5.79;100.00;102425.16;5062603;28;20044;-80
2023/03/04 09:35:04;;;;;;;6.22;1.52;;;;;;;5.84;100.00;102418.44;5053861;28;20060;-80
2023/03/04 09:37:31;;;;;;;12.77;1.88;;;;;;;5.89;100.00;102426.50;5059066;28;20051;-80
2023/03/04 09:39:59;;;;;;;12.95;2.55;;;;;;;5.99;100.00;102423.53;5048532;28;20059;-80
2023/03/04 09:42:33;;;;;;;6.93;2.05;;;;;;;6.12;100.00;102429.34;5063379;28;20043;-79
2023/03/04 09:45:04;;;;;;;12.63;3.30;;;;;;;6.15;100.00;102430.38;5057053;28;20049;-79
2023/03/04 09:47:35;;;;;;;15.95;2.63;;;;;;;6.09;100.00;102422.25;5051652;28;20556;-79
2023/03/04 09:50:07;;;;;;;15.77;2.90;;;;;;;6.01;100.00;102432.34;5035060;28;20064;-78
2023/03/04 09:52:46;;;;;;;11.35;2.65;;;;;;;5.97;100.00;102424.28;5062897;28;20051;-79
2023/03/04 09:55:13;;;;;;;11.63;2.75;;;;;;;5.91;100.00;102437.03;5061667;28;20056;-79
2023/03/04 09:57:59;;;;;;;14.63;3.53;;;;;;;5.85;100.00;102433.28;5079051;28;20048;-79
2023/03/04 10:00:37;;;;;;;11.90;2.60;;;;;;;5.77;100.00;102446.84;5074899;28;20048;-79
2023/03/04 10:03:12;;;;;;;20.45;2.90;;;;;;;5.75;100.00;102431.06;5057307;28;20041;-79
2023/03/04 10:05:51;;;;;;;16.55;3.75;;;;;;;5.71;100.00;102431.75;5074573;28;20060;-79
2023/03/04 10:08:34;;;;;;;19.38;2.90;;;;;;;5.71;100.00;102431.75;5023648;28;20036;-79
2023/03/04 10:11:05;;;;;;;12.10;2.60;;;;;;;5.77;100.00;102436.38;5059432;28;20049;-79
2023/03/04 10:13:40;;;;;;;12.90;2.50;;;;;;;5.78;100.00;102439.06;5044713;28;20056;-79
2023/03/04 10:16:13;;;;;;;17.02;2.72;;;;;;;5.83;100.00;102426.22;5064370;28;20509;-79
2023/03/04 10:18:49;;;;;;;19.58;4.07;;;;;;;5.91;100.00;102437.03;5055948;28;20037;-79
2023/03/04 10:21:31;;;;;;;12.98;2.80;;;;;;;5.89;100.00;102431.72;5083226;28;20049;-79
2023/03/04 10:24:13;;;;;;;9.80;2.00;;;;;;;5.82;100.00;102438.41;5023379;28;20059;-80
2023/03/04 10:26:47;;;;;;;9.35;2.75;;;;;;;5.81;100.00;102444.44;5056990;28;20048;-79
2023/03/04 10:29:17;;;;;;;13.15;3.65;;;;;;;5.77;100.00;102441.63;5045607;28;20127;-80
2023/03/04 10:31:45;;;;;;;17.17;3.33;;;;;;;5.72;100.00;102436.16;5072231;28;20051;-80
2023/03/04 10:34:14;;;;;;;16.00;2.95;;;;;;;5.70;100.00;102450.88;5021082;28;20053;-80
2023/03/04 10:36:59;;;;;;;16.17;3.25;;;;;;;5.65;100.00;102442.81;5054627;28;20059;-78
2023/03/04 10:39:29;;;;;;;13.50;2.70;;;;;;;5.70;100.00;102445.63;5044597;28;20064;-79
2023/03/04 10:42:06;;;;;;;9.53;2.97;;;;;;;5.77;100.00;102442.50;5072778;28;20052;-78
2023/03/04 10:44:34;;;;;;;11.05;3.08;;;;;;;5.89;100.00;102444.81;5065135;28;20275;-79
2023/03/04 10:47:02;;;;;;;15.02;2.97;;;;;;;5.97;100.00;102442.59;5058728;28;20040;-79
2023/03/04 10:49:31;;;;;;;17.95;3.45;;;;;;;5.98;100.00;102442.66;5053891;28;20783;-79
2023/03/04 10:52:22;;;;;;;15.13;2.75;;;;;;;5.94;100.00;102437.19;5070065;28;20053;-79
2023/03/04 10:54:53;;;;;;;11.90;2.97;;;;;;;5.90;100.00;102435.22;5012508;28;20048;-79
2023/03/04 10:57:34;;;;;;;11.68;2.17;;;;;;;5.98;100.00;102437.44;5054813;28;20055;-80
2023/03/04 11:00:17;;;;;;;18.50;2.63;;;;;;;6.08;100.00;102425.66;5058475;28;20047;-81
2023/03/04 11:02:46;;;;;;;12.52;3.03;;;;;;;6.25;100.00;102429.97;5103426;28;20386;-78
2023/03/04 11:05:24;;;;;;;16.50;3.28;;;;;;;6.28;100.00;102428.34;5054462;28;20051;-78
2023/03/04 11:07:55;;;;;;;;;;;;;;;6.15;100.00;102427.75;5069752;28;20045;-78
2023/03/04 11:10:35;;;;;;;11.30;2.45;;;;;;;6.06;100.00;102435.19;5028692;28;19924;-79
2023/03/04 11:13:22;;;;;;;10.30;2.70;;;;;;;6.04;100.00;102427.25;5064647;28;20044;-78
2023/03/04 11:16:04;;;;;;;11.70;2.83;;;;;;;6.08;100.00;102424.78;5036193;28;20044;-79
2023/03/04 11:18:41;;;;;;;14.73;3.08;;;;;;;6.20;100.00;102441.97;5082981;28;20051;-79
2023/03/04 11:21:26;;;;;;;14.05;2.55;;;;;;;6.21;100.00;102433.28;5050383;28;20057;-79
2023/03/04 11:24:01;;;;;;;22.00;3.35;;;;;;;6.08;100.00;102430.03;5082494;28;20059;-79
2023/03/04 11:26:41;;;;;;;12.82;2.80;;;;;;;5.94;100.00;102443.31;5056965;28;20048;-80
2023/03/04 11:29:21;;;;;;;11.80;2.92;;;;;;;5.92;100.00;102436.22;5069089;28;20051;-80